Time;durP1;ratioP1;P1;durP2;ratioP2;P2;SDS_P1;SDS_P2;PMS_P1;PMS_P2;Temp;Humidity;BMP_temperature;BMP_pressure;BME280_temperature;BME280_humidity;BME280_pressure;Samples;Min_cycle;Max_cycle;Signal;HPM_P1;HPM_P2
2022/08/24 00:01:26;;;;;;;12.43;8.33;;;;;;;20.55;100.00;98374.56;1692924;82;28165;-84
2022/08/24 00:03:54;;;;;;;13.43;8.10;;;;;;;20.55;100.00;98378.05;1686959;81;27991;-85
2022/08/24 00:06:22;;;;;;;18.20;9.40;;;;;;;20.50;100.00;98378.23;1677696;82;28230;-85
2022/08/24 00:08:51;;;;;;;14.90;9.35;;;;;;;20.51;100.00;98371.92;1682442;82;28043;-84
2022/08/24 00:11:17;;;;;;;15.75;9.83;;;;;;;20.52;100.00;98370.89;1690164;82;28250;-84
2022/08/24 00:13:47;;;;;;;18.10;10.15;;;;;;;20.49;100.00;98372.58;1692471;82;28163;-85
2022/08/24 00:16:17;;;;;;;19.75;10.10;;;;;;;20.49;100.00;98373.91;1679793;81;28153;-85
2022/08/24 00:18:44;;;;;;;18.32;10.25;;;;;;;20.48;100.00;98369.09;1685840;81;28010;-85
2022/08/24 00:21:11;;;;;;;16.65;9.78;;;;;;;20.47;100.00;98376.73;1683467;81;28152;-85
2022/08/24 00:23:38;;;;;;;17.15;9.65;;;;;;;20.48;100.00;98370.42;1727530;81;28139;-85
2022/08/24 00:26:05;;;;;;;16.23;10.03;;;;;;;20.44;100.00;98371.77;1715966;81;28089;-85
2022/08/24 00:28:32;;;;;;;15.58;9.35;;;;;;;20.32;100.00;98378.44;1684625;81;28119;-85
2022/08/24 00:31:00;;;;;;;13.68;9.08;;;;;;;20.23;100.00;98380.27;1723107;80;28288;-85
2022/08/24 00:33:27;;;;;;;16.20;10.10;;;;;;;20.16;100.00;98379.27;1736520;81;28098;-85
2022/08/24 00:38:27;;;;;;;25.32;13.18;;;;;;;20.07;100.00;98369.67;1731326;80;28149;-85
2022/08/24 00:40:54;;;;;;;22.62;13.50;;;;;;;20.16;100.00;98360.67;1724490;81;28122;-86
2022/08/24 00:43:24;;;;;;;23.62;12.40;;;;;;;20.22;100.00;98357.34;1724927;81;28094;-85
2022/08/24 00:46:16;;;;;;;21.73;11.85;;;;;;;20.24;100.00;98361.97;1726954;80;28241;-84
2022/08/24 00:48:46;;;;;;;21.45;12.30;;;;;;;20.25;100.00;98359.64;1721134;81;28045;-84
2022/08/24 00:51:19;;;;;;;21.50;12.68;;;;;;;20.29;100.00;98368.93;1727652;80;28148;-85
2022/08/24 00:53:58;;;;;;;23.15;12.13;;;;;;;20.22;100.00;98370.63;1723502;82;28138;-84
2022/08/24 00:56:28;;;;;;;26.45;14.03;;;;;;;20.10;100.00;98377.29;1717339;81;28137;-85
2022/08/24 00:59:03;;;;;;;24.77;13.78;;;;;;;20.02;100.00;98377.28;1731496;81;28075;-84
2022/08/24 01:01:32;;;;;;;23.75;13.03;;;;;;;20.02;100.00;98375.95;1716995;80;28059;-84
2022/08/24 01:03:59;;;;;;;25.32;14.43;;;;;;;19.98;100.00;98371.98;1727537;81;28060;-88
2022/08/24 01:06:25;;;;;;;22.58;13.38;;;;;;;19.85;100.00;98381.81;1710953;80;28207;-88
2022/08/24 01:08:52;;;;;;;21.75;13.60;;;;;;;19.83;100.00;98379.81;1718977;80;28154;-88
2022/08/24 01:11:21;;;;;;;21.95;12.65;;;;;;;19.79;100.00;98382.47;1731837;80;28184;-87
2022/08/24 01:13:51;;;;;;;23.05;12.47;;;;;;;19.78;100.00;98381.30;1729235;81;28078;-88
2022/08/24 01:18:48;;;;;;;21.42;12.82;;;;;;;19.76;100.00;98386.77;1729979;81;28508;-88
2022/08/24 01:18:49;;;;;;;20.90;12.82;;;;;;;19.72;100.00;98393.91;1737538;81;28100;-88
2022/08/24 01:21:25;;;;;;;20.50;11.38;;;;;;;19.68;100.00;98400.55;1691606;81;28002;-88
2022/08/24 01:23:56;;;;;;;18.25;11.45;;;;;;;19.72;100.00;98404.04;1709960;81;28069;-88
2022/08/24 01:26:35;;;;;;;16.03;10.00;;;;;;;19.72;100.00;98408.02;1693921;81;28274;-88
2022/08/24 01:29:04;;;;;;;23.60;12.78;;;;;;;19.75;100.00;98409.00;1697474;81;28161;-88
2022/08/24 01:31:31;;;;;;;22.93;12.40;;;;;;;19.71;100.00;98400.21;1722474;81;28141;-88
2022/08/24 01:34:00;;;;;;;20.72;12.63;;;;;;;19.68;100.00;98396.58;1743045;81;28161;-88
2022/08/24 01:36:44;;;;;;;20.20;12.33;;;;;;;19.68;100.00;98392.59;1726560;81;28030;-88
2022/08/24 01:39:30;;;;;;;18.65;11.12;;;;;;;19.68;100.00;98394.75;1730970;80;28114;-88
2022/08/24 01:41:59;;;;;;;19.87;12.00;;;;;;;19.61;100.00;98397.23;1733578;80;28147;-88
2022/08/24 01:44:27;;;;;;;18.42;10.70;;;;;;;19.68;100.00;98394.75;1734326;80;28118;-88
2022/08/24 01:46:56;;;;;;;18.02;10.68;;;;;;;19.73;100.00;98396.41;1725531;81;28149;-88
2022/08/24 01:49:25;;;;;;;17.98;10.53;;;;;;;19.77;100.00;98389.77;1709512;81;28162;-89
2022/08/24 01:51:51;;;;;;;19.62;11.60;;;;;;;19.84;100.00;98384.63;1729166;80;28137;-89
2022/08/24 01:54:18;;;;;;;20.92;11.85;;;;;;;19.95;100.00;98390.44;1733246;81;28217;-89
2022/08/24 01:56:44;;;;;;;23.98;13.48;;;;;;;19.96;100.00;98389.94;1686205;82;28160;-89
2022/08/24 01:59:11;;;;;;;20.62;10.95;;;;;;;19.99;100.00;98398.89;1685729;81;28069;-89
2022/08/24 02:01:41;;;;;;;19.07;10.63;;;;;;;20.06;100.00;98401.22;1686703;81;28076;-89
2022/08/24 02:04:09;;;;;;;;;;;;;;;20.07;100.00;98406.86;1689068;83;28126;-88
2022/08/24 02:06:36;;;;;;;20.52;12.68;;;;;;;20.11;100.00;98407.34;1694485;82;22565;-88
2022/08/24 02:09:03;;;;;;;19.50;11.48;;;;;;;20.14;100.00;98403.84;1724322;81;28133;-89
2022/08/24 02:11:29;;;;;;;18.32;10.90;;;;;;;20.13;100.00;98408.83;1678661;82;28008;-88
2022/08/24 02:13:55;;;;;;;20.02;11.48;;;;;;;20.02;100.00;98413.15;1724059;81;28084;-88
2022/08/24 02:16:22;;;;;;;23.12;12.82;;;;;;;19.93;100.00;98414.16;1693342;81;28286;-88
2022/08/24 02:18:49;;;;;;;21.75;11.80;;;;;;;19.92;100.00;98411.17;1704605;80;28279;-88
2022/08/24 02:21:15;;;;;;;22.62;13.58;;;;;;;19.91;100.00;98422.28;1710462;80;28113;-88
2022/08/24 02:23:49;;;;;;;21.77;12.23;;;;;;;19.90;100.00;98415.84;1669751;83;28126;-88
2022/08/24 02:26:16;;;;;;;23.65;12.98;;;;;;;19.90;100.00;98419.81;1671408;82;28142;-88
2022/08/24 02:28:42;;;;;;;22.98;11.78;;;;;;;19.90;100.00;98422.48;1714662;81;28196;-87
2022/08/24 02:31:10;;;;;;;19.48;11.68;;;;;;;19.87;100.00;98430.76;1719423;80;28108;-87
2022/08/24 02:33:37;;;;;;;20.02;11.00;;;;;;;19.86;100.00;98424.61;1731402;81;28150;-87
2022/08/24 02:36:06;;;;;;;19.30;10.53;;;;;;;19.87;100.00;98422.30;1734128;81;28107;-88
2022/08/24 02:38:32;;;;;;;15.00;9.73;;;;;;;19.77;100.00;98429.59;1728907;81;28105;-88
2022/08/24 02:41:05;;;;;;;18.98;11.10;;;;;;;19.59;100.00;98428.41;1736038;81;28084;-88
2022/08/24 02:43:32;;;;;;;15.72;9.68;;;;;;;19.46;100.00;98429.90;1737093;81;28014;-88
2022/08/24 02:45:58;;;;;;;17.45;10.30;;;;;;;19.41;100.00;98423.73;1706616;81;28176;-88
2022/08/24 02:48:25;;;;;;;22.13;11.45;;;;;;;19.48;100.00;98422.09;1730710;81;28127;-89
2022/08/24 02:50:51;;;;;;;23.30;10.70;;;;;;;19.53;100.00;98421.10;1734114;81;28027;-88
2022/08/24 02:53:24;;;;;;;20.65;10.38;;;;;;;19.69;100.00;98424.30;1728119;81;28110;-87
2022/08/24 02:55:48;;;;;;;19.80;10.80;;;;;;;19.77;100.00;98425.62;1721633;80;28098;-87
2022/08/24 02:58:16;;;;;;;20.10;10.85;;;;;;;19.79;100.00;98417.49;1722975;81;28183;-87
2022/08/24 03:00:45;;;;;;;23.62;11.48;;;;;;;19.83;100.00;98428.11;1727493;81;28066;-87
2022/08/24 03:03:12;;;;;;;22.85;11.57;;;;;;;19.79;100.00;98424.13;1720590;81;28094;-87
2022/08/24 03:05:39;;;;;;;22.65;11.55;;;;;;;19.80;100.00;98427.92;1728671;80;28114;-87
2022/08/24 03:08:05;;;;;;;23.47;11.35;;;;;;;19.82;100.00;98425.12;1726439;81;28094;-87
2022/08/24 03:10:32;;;;;;;22.75;11.38;;;;;;;19.90;100.00;98426.46;1723486;81;28096;-84
2022/08/24 03:12:59;;;;;;;26.20;13.15;;;;;;;19.97;100.00;98434.08;1732262;81;28248;-85
2022/08/24 03:15:28;;;;;;;25.23;11.63;;;;;;;20.03;100.00;98430.75;1737800;81;28252;-84
2022/08/24 03:17:55;;;;;;;21.60;11.10;;;;;;;20.07;100.00;98432.11;1730051;81;28115;-85
2022/08/24 03:20:22;;;;;;;25.20;11.93;;;;;;;20.10;100.00;98426.94;1722503;80;28098;-85
2022/08/24 03:22:48;;;;;;;23.55;11.80;;;;;;;20.09;100.00;98431.42;1733997;81;28117;-84
2022/08/24 03:25:17;;;;;;;23.42;11.53;;;;;;;20.07;100.00;98433.44;1733298;80;28167;-85
2022/08/24 03:27:47;;;;;;;25.97;11.60;;;;;;;20.10;100.00;98429.10;1721506;81;28121;-85
2022/08/24 03:30:13;;;;;;;23.47;12.70;;;;;;;20.09;100.00;98430.09;1722183;81;28140;-84
2022/08/24 03:32:41;;;;;;;28.95;14.03;;;;;;;20.13;100.00;98434.06;1714949;82;28082;-88
2022/08/24 03:35:08;;;;;;;25.70;12.95;;;;;;;20.10;100.00;98429.10;1723420;81;28122;-89
2022/08/24 03:37:34;;;;;;;25.68;12.13;;;;;;;20.03;100.00;98430.27;1716975;81;27990;-88
2022/08/24 03:40:01;;;;;;;27.15;13.03;;;;;;;20.07;100.00;98426.80;1726513;81;28210;-89
2022/08/24 03:42:27;;;;;;;26.30;12.98;;;;;;;20.12;100.00;98424.46;1717098;80;28197;-89
2022/08/24 03:44:53;;;;;;;26.25;12.98;;;;;;;20.12;100.00;98421.80;1723906;81;28110;-88
2022/08/24 03:47:21;;;;;;;25.85;11.68;;;;;;;20.11;100.00;98424.13;1727325;81;28224;-89
2022/08/24 03:49:47;;;;;;;21.55;11.57;;;;;;;20.03;100.00;98434.73;1732925;81;28086;-88
2022/08/24 03:52:14;;;;;;;27.50;12.33;;;;;;;19.92;100.00;98433.25;1682282;82;28100;-89
2022/08/24 03:54:40;;;;;;;30.27;13.60;;;;;;;19.94;100.00;98437.08;1676580;82;28132;-88
2022/08/24 03:57:06;;;;;;;27.87;13.85;;;;;;;19.99;100.00;98440.89;1693151;81;28054;-87
2022/08/24 03:59:32;;;;;;;27.62;13.30;;;;;;;20.01;100.00;98440.24;1693737;81;28009;-87
2022/08/24 04:01:59;;;;;;;25.45;13.15;;;;;;;19.94;100.00;98439.23;1687229;81;28140;-87
2022/08/24 04:04:25;;;;;;;26.37;13.58;;;;;;;19.86;100.00;98431.25;1719986;80;28137;-87
2022/08/24 04:06:51;;;;;;;23.65;12.95;;;;;;;19.85;100.00;98428.78;1680803;82;28028;-87
2022/08/24 04:09:18;;;;;;;28.60;13.20;;;;;;;19.87;100.00;98427.61;1691107;81;28192;-87
2022/08/24 04:11:44;;;;;;;28.87;12.93;;;;;;;19.83;100.00;98425.45;1709871;80;28219;-87
2022/08/24 04:14:13;;;;;;;25.40;13.25;;;;;;;19.74;100.00;98429.94;1728793;80;28133;-87
2022/08/24 04:16:39;;;;;;;24.85;13.35;;;;;;;19.73;100.00;98432.26;1693864;82;28049;-84
2022/08/24 04:19:06;;;;;;;26.75;12.93;;;;;;;19.69;100.00;98435.41;1738301;80;28224;-85
2022/08/24 04:21:35;;;;;;;28.07;14.23;;;;;;;19.64;100.00;98433.22;1718995;81;28150;-85
2022/08/24 04:24:06;;;;;;;28.32;12.10;;;;;;;19.61;100.00;98438.38;1723089;80;28060;-85
2022/08/24 04:26:32;;;;;;;25.35;12.88;;;;;;;19.60;100.00;98435.39;1690316;82;28020;-85
2022/08/24 04:29:04;;;;;;;20.92;11.57;;;;;;;19.72;100.00;98435.07;1701211;81;28041;-85
2022/08/24 04:31:30;;;;;;;22.00;11.80;;;;;;;19.79;100.00;98428.95;1701940;81;28087;-84
2022/08/24 04:33:55;;;;;;;23.02;10.72;;;;;;;19.82;100.00;98423.78;1682234;82;28075;-85
2022/08/24 04:36:21;;;;;;;24.95;12.37;;;;;;;19.81;100.00;98422.95;1705009;80;28325;-85
2022/08/24 04:38:49;;;;;;;22.20;11.45;;;;;;;19.92;100.00;98420.47;1692177;81;28218;-85
2022/08/24 04:41:19;;;;;;;23.80;11.55;;;;;;;20.00;100.00;98417.33;1666267;84;28112;-84
2022/08/24 04:43:46;;;;;;;24.07;12.55;;;;;;;20.04;100.00;98421.30;1688712;81;28114;-84
2022/08/24 04:46:16;;;;;;;24.18;12.68;;;;;;;20.09;100.00;98425.27;1723717;80;28021;-85
2022/08/24 04:48:43;;;;;;;24.35;12.90;;;;;;;20.13;100.00;98422.11;1730635;81;28263;-84
2022/08/24 04:51:11;;;;;;;25.32;12.80;;;;;;;20.17;100.00;98428.77;1724698;81;28117;-85
2022/08/24 04:53:38;;;;;;;24.07;11.75;;;;;;;20.10;100.00;98427.77;1688220;82;28096;-88
2022/08/24 04:56:10;;;;;;;21.90;11.80;;;;;;;20.06;100.00;98430.44;1705156;82;28261;-87
2022/08/24 04:58:37;;;;;;;23.42;12.35;;;;;;;20.10;100.00;98433.58;1670339;82;28155;-88
2022/08/24 05:01:09;;;;;;;20.45;11.33;;;;;;;20.10;100.00;98427.77;1681893;81;28109;-88
2022/08/24 05:03:35;;;;;;;21.48;11.05;;;;;;;20.18;100.00;98433.59;1723459;80;28018;-89
2022/08/24 05:06:02;;;;;;;22.10;10.58;;;;;;;20.23;100.00;98428.10;1691307;81;28426;-89
2022/08/24 05:08:28;;;;;;;20.35;10.98;;;;;;;20.14;100.00;98437.06;1674095;82;28114;-89
2022/08/24 05:10:55;;;;;;;19.52;10.38;;;;;;;20.06;100.00;98433.09;1695073;81;28129;-89
2022/08/24 05:13:21;;;;;;;20.90;10.65;;;;;;;20.01;100.00;98438.91;1715203;80;28081;-89
2022/08/24 05:15:49;;;;;;;19.52;11.30;;;;;;;20.02;100.00;98439.72;1741614;80;28138;-89
2022/08/24 05:18:17;;;;;;;19.07;10.88;;;;;;;20.03;100.00;98432.92;1729794;81;28100;-89
2022/08/24 05:20:46;;;;;;;22.42;11.83;;;;;;;20.07;100.00;98431.27;1715671;81;28243;-89
2022/08/24 05:23:13;;;;;;;22.05;11.30;;;;;;;20.03;100.00;98433.41;1723878;80;28086;-88
2022/08/24 05:25:41;;;;;;;20.88;10.30;;;;;;;20.02;100.00;98433.08;1719097;81;28153;-88
2022/08/24 05:28:11;;;;;;;23.62;12.25;;;;;;;20.09;100.00;98437.23;1723006;81;28065;-88
2022/08/24 05:30:38;;;;;;;20.77;11.78;;;;;;;20.14;100.00;98430.91;1713558;81;28117;-89
2022/08/24 05:33:04;;;;;;;19.60;11.05;;;;;;;20.22;100.00;98439.73;1720648;81;28956;-89
2022/08/24 05:35:32;;;;;;;18.15;10.43;;;;;;;20.27;100.00;98437.39;1722235;81;28147;-87
2022/08/24 05:37:59;;;;;;;21.90;11.63;;;;;;;20.30;100.00;98436.21;1720517;81;28089;-88
2022/08/24 05:40:29;;;;;;;24.47;12.45;;;;;;;20.32;100.00;98445.72;1725260;81;28088;-85
2022/08/24 05:42:53;;;;;;;23.83;12.58;;;;;;;20.29;100.00;98445.21;1723154;81;28109;-85
2022/08/24 05:45:19;;;;;;;25.80;12.30;;;;;;;20.35;100.00;98440.05;1696736;82;28073;-85
2022/08/24 05:47:46;;;;;;;24.67;12.45;;;;;;;20.45;100.00;98441.23;1729260;80;28110;-85
2022/08/24 05:50:12;;;;;;;22.95;12.28;;;;;;;20.46;100.00;98440.20;1678483;82;28279;-84
2022/08/24 05:52:38;;;;;;;21.85;11.55;;;;;;;20.43;100.00;98441.39;1694635;82;28118;-87
2022/08/24 05:55:05;;;;;;;22.35;11.95;;;;;;;20.42;100.00;98429.58;1698987;81;28119;-87
2022/08/24 05:57:34;;;;;;;24.67;12.70;;;;;;;20.42;100.00;98437.06;1712094;80;28079;-84
2022/08/24 06:00:08;;;;;;;25.23;13.00;;;;;;;20.49;100.00;98435.89;1727925;81;28105;-85
2022/08/24 06:02:33;;;;;;;24.47;12.75;;;;;;;20.56;100.00;98429.41;1716688;81;28268;-85
2022/08/24 06:05:00;;;;;;;22.98;12.75;;;;;;;20.54;100.00;98442.86;1729515;81;28212;-85
2022/08/24 06:07:29;;;;;;;25.48;13.20;;;;;;;20.53;100.00;98437.70;1721779;81;28118;-84
2022/08/24 06:09:56;;;;;;;26.73;13.38;;;;;;;20.49;100.00;98433.73;1726315;80;28239;-85
2022/08/24 06:12:23;;;;;;;22.90;12.60;;;;;;;20.53;100.00;98424.41;1734078;81;28068;-84
2022/08/24 06:14:52;;;;;;;25.00;12.20;;;;;;;20.54;100.00;98430.06;1731558;81;28199;-84
2022/08/24 06:17:18;;;;;;;22.85;12.23;;;;;;;20.63;100.00;98423.70;1724266;81;28104;-84
2022/08/24 06:19:44;;;;;;;24.98;13.20;;;;;;;20.65;100.00;98424.38;1722640;80;28073;-84
2022/08/24 06:22:10;;;;;;;22.67;13.22;;;;;;;20.70;100.00;98427.35;1709499;82;44097;-85
2022/08/24 06:27:25;;;;;;;25.00;13.38;;;;;;;20.71;100.00;98434.34;1694965;81;28172;-85
2022/08/24 06:29:55;;;;;;;25.00;13.08;;;;;;;20.71;100.00;98444.98;1704265;81;28264;-84
2022/08/24 06:32:28;;;;;;;21.50;13.35;;;;;;;20.74;100.00;98449.45;1673094;82;105939;-84
2022/08/24 06:34:56;;;;;;;24.65;13.95;;;;;;;20.78;100.00;98453.94;1699037;81;28190;-86
2022/08/24 06:37:25;;;;;;;29.05;14.50;;;;;;;20.78;100.00;98448.63;1707760;81;28049;-86
2022/08/24 06:39:54;;;;;;;29.98;14.18;;;;;;;20.81;100.00;98450.92;1689283;81;27988;-86
2022/08/24 06:42:35;;;;;;;25.43;12.63;;;;;;;20.80;100.00;98448.77;1706398;81;28185;-87
2022/08/24 06:45:02;;;;;;;25.62;13.20;;;;;;;20.84;100.00;98457.22;1703128;81;28073;-88
2022/08/24 06:47:28;;;;;;;25.57;13.28;;;;;;;20.74;100.00;98464.57;1700537;81;28225;-88
2022/08/24 06:50:00;;;;;;;25.15;13.05;;;;;;;20.72;100.00;98467.92;1738633;81;28286;-87
2022/08/24 06:52:27;;;;;;;19.65;11.35;;;;;;;20.79;100.00;98456.41;1690868;81;28213;-88
2022/08/24 06:54:54;;;;;;;20.77;12.03;;;;;;;20.73;100.00;98458.42;1720773;81;28092;-88
2022/08/24 06:57:20;;;;;;;29.15;14.35;;;;;;;20.69;100.00;98466.91;1732107;81;28058;-88
2022/08/24 06:59:47;;;;;;;25.37;13.95;;;;;;;20.67;100.00;98467.11;1731367;81;28201;-87
2022/08/24 07:02:17;;;;;;;29.95;14.58;;;;;;;20.74;100.00;98462.74;1689726;82;28131;-87
2022/08/24 07:04:42;;;;;;;27.62;14.58;;;;;;;20.71;100.00;98465.76;1721231;81;28004;-88
2022/08/24 07:07:08;;;;;;;28.17;14.78;;;;;;;20.69;100.00;98464.25;1688795;80;28147;-87
2022/08/24 07:09:35;;;;;;;32.15;14.95;;;;;;;20.71;100.00;98467.59;1702230;81;28128;-87
2022/08/24 07:12:04;;;;;;;32.42;15.03;;;;;;;20.68;100.00;98461.26;1668796;81;28099;-87
2022/08/24 07:14:31;;;;;;;28.10;13.80;;;;;;;20.72;100.00;98458.61;1673959;82;28113;-87
2022/08/24 07:16:57;;;;;;;28.32;13.75;;;;;;;20.77;100.00;98460.26;1698501;81;28126;-87
2022/08/24 07:19:24;;;;;;;24.47;13.68;;;;;;;20.80;100.00;98462.56;1713479;80;28014;-87
2022/08/24 07:21:50;;;;;;;30.25;14.35;;;;;;;20.80;100.00;98470.05;1726115;81;28149;-88
2022/08/24 07:24:18;;;;;;;25.23;13.83;;;;;;;20.69;100.00;98474.39;1736213;81;28050;-87
2022/08/24 07:26:44;;;;;;;26.42;13.45;;;;;;;20.63;100.00;98472.91;1735789;81;28023;-87
2022/08/24 07:29:14;;;;;;;23.98;12.85;;;;;;;20.74;100.00;98478.70;1729994;80;28095;-87
2022/08/24 07:31:44;;;;;;;25.65;12.68;;;;;;;20.82;100.00;98477.36;1729496;81;28010;-86
2022/08/24 07:34:11;;;;;;;24.00;12.78;;;;;;;20.89;100.00;98480.98;1713109;82;28066;-87
2022/08/24 07:36:41;;;;;;;22.30;12.07;;;;;;;20.91;100.00;98468.84;1696655;82;28052;-86
2022/08/24 07:39:08;;;;;;;23.80;12.03;;;;;;;20.91;100.00;98471.51;1713323;81;28106;-86
2022/08/24 07:41:40;;;;;;;25.02;13.13;;;;;;;20.80;100.00;98473.20;1678387;82;28111;-88
2022/08/24 07:44:07;;;;;;;29.30;13.95;;;;;;;20.68;100.00;98483.37;1696155;82;28090;-88
2022/08/24 07:46:33;;;;;;;27.50;13.38;;;;;;;20.60;100.00;98491.87;1691382;81;28079;-88
2022/08/24 07:48:59;;;;;;;30.50;14.87;;;;;;;20.52;100.00;98493.20;1702954;82;28170;-88
2022/08/24 07:51:26;;;;;;;30.60;14.60;;;;;;;20.40;100.00;98500.19;1734442;81;28004;-88
2022/08/24 07:53:53;;;;;;;28.73;14.33;;;;;;;20.33;100.00;98498.39;1729192;81;28080;-88
2022/08/24 07:56:19;;;;;;;28.35;14.70;;;;;;;20.34;100.00;98502.71;1714506;80;28096;-88
2022/08/24 07:58:47;;;;;;;29.18;15.32;;;;;;;20.44;100.00;98498.88;1696604;81;28023;-88
2022/08/24 08:01:14;;;;;;;30.85;14.68;;;;;;;20.48;100.00;98504.69;1724514;81;28074;-87
2022/08/24 08:03:42;;;;;;;35.75;15.65;;;;;;;20.41;100.00;98500.53;1725698;80;28133;-86
2022/08/24 08:06:09;;;;;;;33.38;15.88;;;;;;;20.34;100.00;98500.89;1704898;80;28031;-86
2022/08/24 08:08:37;;;;;;;32.78;15.80;;;;;;;20.37;100.00;98493.06;1731032;81;28110;-86
2022/08/24 08:11:05;;;;;;;33.70;16.07;;;;;;;20.41;100.00;98501.86;1680624;81;28260;-86
2022/08/24 08:13:36;;;;;;;32.78;15.38;;;;;;;20.54;100.00;98508.50;1685942;81;28163;-87
2022/08/24 08:16:03;;;;;;;35.85;15.60;;;;;;;20.55;100.00;98507.50;1730270;81;28118;-87
2022/08/24 08:18:30;;;;;;;33.88;15.85;;;;;;;20.50;100.00;98503.20;1734304;81;28103;-86
2022/08/24 08:20:57;;;;;;;33.35;16.02;;;;;;;20.49;100.00;98498.38;1688035;81;28183;-88
2022/08/24 08:26:19;;;;;;;35.50;16.00;;;;;;;20.57;100.00;98501.01;1692374;82;28158;-88
2022/08/24 08:29:09;;;;;;;34.00;16.90;;;;;;;20.63;100.00;98505.66;1679976;82;28115;-87
2022/08/24 08:31:37;;;;;;;37.33;17.60;;;;;;;20.64;100.00;98511.31;1686339;82;28084;-88
2022/08/24 08:34:04;;;;;;;37.98;17.25;;;;;;;20.58;100.00;98505.33;1681476;81;28095;-87
2022/08/24 08:36:32;;;;;;;40.43;18.12;;;;;;;20.54;100.00;98506.67;1682190;82;28065;-87
2022/08/24 08:38:59;;;;;;;41.50;18.48;;;;;;;20.57;100.00;98507.66;1675415;81;28056;-88
2022/08/24 08:41:41;;;;;;;33.88;16.23;;;;;;;20.51;100.00;98508.32;1732669;81;28205;-88
2022/08/24 08:44:32;;;;;;;39.73;18.48;;;;;;;20.45;100.00;98511.68;1708459;82;28123;-87
2022/08/24 08:47:16;;;;;;;44.27;20.73;;;;;;;20.37;100.00;98519.64;1717774;80;28118;-88
2022/08/24 08:50:02;;;;;;;35.80;17.05;;;;;;;20.32;100.00;98520.15;1708889;81;28144;-87
2022/08/24 08:53:06;;;;;;;44.08;19.60;;;;;;;20.30;100.00;98530.56;1666253;81;28036;-85
2022/08/24 08:55:39;;;;;;;43.42;19.65;;;;;;;20.19;100.00;98529.07;1696738;81;28192;-85
2022/08/24 08:58:26;;;;;;;43.95;19.73;;;;;;;20.18;100.00;98534.58;1705027;81;28152;-85
2022/08/24 09:01:16;;;;;;;44.58;19.62;;;;;;;20.18;100.00;98538.56;1695958;82;28114;-85
2022/08/24 09:04:18;;;;;;;38.58;18.65;;;;;;;20.15;100.00;98530.41;1681149;83;28023;-85
2022/08/24 09:06:54;;;;;;;34.30;16.62;;;;;;;20.16;100.00;98535.23;1722013;80;28434;-87
2022/08/24 09:09:45;;;;;;;33.75;17.20;;;;;;;20.16;100.00;98539.21;1723058;81;28023;-87
2022/08/24 09:12:42;;;;;;;34.27;17.42;;;;;;;20.16;100.00;98544.03;1728685;80;28018;-88
2022/08/24 09:15:29;;;;;;;34.88;18.57;;;;;;;20.27;100.00;98536.23;1729627;80;28083;-88
2022/08/24 09:18:16;;;;;;;31.30;16.10;;;;;;;20.32;100.00;98536.59;1731531;80;28262;-88
2022/08/24 09:21:22;;;;;;;30.12;15.43;;;;;;;20.37;100.00;98542.23;1654447;84;28034;-88
2022/08/24 09:24:00;;;;;;;27.22;15.10;;;;;;;20.43;100.00;98538.92;1636962;84;28403;-88
2022/08/24 09:26:32;;;;;;;24.65;14.58;;;;;;;20.44;100.00;98541.42;1643765;84;28105;-87
2022/08/24 09:29:05;;;;;;;23.32;14.33;;;;;;;20.41;100.00;98543.06;1634079;84;28167;-88
2022/08/24 09:31:35;;;;;;;26.20;14.23;;;;;;;20.42;100.00;98538.09;1636684;84;28074;-88
2022/08/24 09:34:13;;;;;;;26.77;14.55;;;;;;;20.45;100.00;98531.62;1657290;83;28082;-88
2022/08/24 09:37:03;;;;;;;14.18;9.13;;;;;;;20.45;100.00;98531.62;1652607;83;28137;-88
2022/08/24 09:39:58;;;;;;;22.85;13.75;;;;;;;20.45;100.00;98532.45;1652585;83;28000;-87
2022/08/24 09:42:48;;;;;;;23.45;13.65;;;;;;;20.41;100.00;98531.59;1631214;85;28286;-88
2022/08/24 09:45:33;;;;;;;19.20;12.98;;;;;;;20.39;100.00;98529.63;1642275;84;28074;-87
2022/08/24 09:48:38;;;;;;;20.20;13.10;;;;;;;20.41;100.00;98528.44;1656761;84;28107;-88
2022/08/24 09:51:10;;;;;;;19.82;13.20;;;;;;;20.44;100.00;98526.80;1648377;84;28105;-88
2022/08/24 09:53:37;;;;;;;;;;;;;;;20.51;100.00;98528.80;1674397;83;28104;-88
2022/08/24 09:56:23;;;;;;;18.30;12.10;;;;;;;20.65;100.00;98525.44;1667567;83;23954;-88
2022/08/24 09:59:02;;;;;;;18.15;12.25;;;;;;;20.77;100.00;98517.45;1657118;83;28034;-88
2022/08/24 10:01:44;;;;;;;19.52;13.22;;;;;;;20.94;100.00;98516.41;1654290;83;28123;-88
2022/08/24 10:04:20;;;;;;;19.25;12.30;;;;;;;21.05;100.00;98522.70;1670170;83;28070;-88
2022/08/24 10:06:50;;;;;;;18.00;13.18;;;;;;;21.20;100.00;98521.52;1669239;83;28120;-88
2022/08/24 10:09:41;;;;;;;;;;;;;;;21.23;100.00;98519.32;1651896;83;28576;-88
2022/08/24 10:12:35;;;;;;;21.50;13.15;;;;;;;21.15;100.00;98519.87;1675415;84;20282;-88
2022/08/24 10:15:04;;;;;;;20.77;13.88;;;;;;;21.22;100.00;98521.65;1676124;84;28099;-89
2022/08/24 10:17:34;;;;;;;24.70;15.05;;;;;;;21.33;100.00;98523.63;1679763;83;28129;-88
2022/08/24 10:20:22;;;;;;;25.12;16.35;;;;;;;21.38;100.00;98516.79;1668171;83;28515;-89
2022/08/24 10:23:11;;;;;;;22.98;14.80;;;;;;;21.34;100.00;98515.45;1646196;83;28088;-88
2022/08/24 10:26:11;;;;;;;25.12;14.58;;;;;;;21.37;100.00;98514.29;1652931;83;28108;-88
2022/08/24 10:29:13;;;;;;;22.60;14.35;;;;;;;21.35;100.00;98511.79;1666415;83;28194;-88
2022/08/24 10:31:41;;;;;;;;;;;;;;;21.36;100.00;98508.63;1675552;83;28252;-88
2022/08/24 10:34:26;;;;;;;27.90;14.98;;;;;;;21.37;100.00;98506.30;1658346;83;26114;-88
2022/08/24 10:37:14;;;;;;;20.43;13.43;;;;;;;21.41;100.00;98512.44;1653858;83;28098;-88
2022/08/24 10:39:59;;;;;;;23.45;13.98;;;;;;;21.47;100.00;98516.23;1671154;83;28086;-88
2022/08/24 10:45:51;;;;;;;20.55;13.55;;;;;;;21.69;100.00;98508.80;1670323;83;28107;-89
2022/08/24 10:48:30;;;;;;;23.85;13.93;;;;;;;21.82;100.00;98507.70;1651283;83;28098;-89
2022/08/24 10:51:14;;;;;;;24.15;13.72;;;;;;;21.96;100.00;98509.65;1633884;83;28130;-89
2022/08/24 10:53:44;;;;;;;22.90;13.58;;;;;;;22.11;100.00;98517.20;1654533;84;28293;-88
2022/08/24 10:56:14;;;;;;;19.20;12.88;;;;;;;22.33;100.00;98518.19;1647645;84;28243;-88
2022/08/24 10:58:56;;;;;;;19.48;13.18;;;;;;;22.42;100.00;98513.10;1640798;84;28129;-89
2022/08/24 11:01:29;;;;;;;19.75;13.35;;;;;;;22.53;100.00;98515.34;1651243;84;28161;-87
2022/08/24 11:03:57;;;;;;;23.75;12.45;;;;;;;22.61;100.00;98505.11;1680483;83;28090;-88
2022/08/24 11:06:32;;;;;;;22.27;12.10;;;;;;;22.61;100.00;98510.44;1664681;83;28115;-88
2022/08/24 11:08:59;;;;;;;19.32;12.53;;;;;;;22.52;100.00;98517.70;1660923;84;28110;-88
2022/08/24 11:11:40;;;;;;;19.35;13.13;;;;;;;22.40;100.00;98514.31;1686797;83;28278;-87
2022/08/24 11:14:24;;;;;;;18.55;12.15;;;;;;;22.26;100.00;98519.07;1667148;83;28076;-87
2022/08/24 11:16:51;;;;;;;19.52;12.30;;;;;;;22.11;100.00;98517.70;1674786;83;28133;-88
2022/08/24 11:19:30;;;;;;;19.32;12.00;;;;;;;22.06;100.00;98516.91;1655935;83;28127;-88
2022/08/24 11:22:00;;;;;;;17.70;12.13;;;;;;;22.09;100.00;98516.53;1656100;83;28205;-88
2022/08/24 11:24:42;;;;;;;18.70;12.03;;;;;;;22.17;100.00;98510.83;1628840;84;28029;-88
2022/08/24 11:27:18;;;;;;;;;;;;;;;22.38;100.00;98511.81;1671006;83;28074;-88
2022/08/24 11:29:57;;;;;;;18.07;11.83;;;;;;;22.65;100.00;98519.73;1643957;84;24537;-89
2022/08/24 11:32:49;;;;;;;19.17;12.45;;;;;;;22.78;100.00;98521.31;1675173;82;28105;-88
2022/08/24 11:35:18;;;;;;;19.60;13.05;;;;;;;22.82;100.00;98521.77;1657461;83;28154;-87
2022/08/24 11:37:50;;;;;;;18.55;12.80;;;;;;;22.87;100.00;98522.87;1641633;84;28115;-87
2022/08/24 11:40:25;;;;;;;21.25;12.85;;;;;;;22.85;100.00;98526.26;1651286;84;28203;-87
2022/08/24 11:43:04;;;;;;;19.62;13.00;;;;;;;22.82;100.00;98502.59;1648572;84;28176;-88